sensor_id;sensor_type;location;lat;lon;timestamp;P1;durP1;ratioP1;P2;durP2;ratioP2
76582;SDS011;65462;52.148;7.940;2023-05-10T00:01:05;5.68;;;4.32;;
76582;SDS011;65462;52.148;7.940;2023-05-10T00:03:30;4.60;;;3.90;;
76582;SDS011;65462;52.148;7.940;2023-05-10T00:05:55;5.18;;;4.25;;
76582;SDS011;65462;52.148;7.940;2023-05-10T00:08:21;5.38;;;4.60;;
76582;SDS011;65462;52.148;7.940;2023-05-10T00:10:46;6.97;;;4.60;;
76582;SDS011;65462;52.148;7.940;2023-05-10T00:13:11;4.85;;;4.10;;
76582;SDS011;65462;52.148;7.940;2023-05-10T00:15:37;6.05;;;4.85;;
76582;SDS011;65462;52.148;7.940;2023-05-10T00:18:02;5.45;;;4.53;;
76582;SDS011;65462;52.148;7.940;2023-05-10T00:20:27;5.90;;;4.90;;
76582;SDS011;65462;52.148;7.940;2023-05-10T00:22:53;6.43;;;4.43;;
76582;SDS011;65462;52.148;7.940;2023-05-10T00:25:18;5.72;;;4.50;;
76582;SDS011;65462;52.148;7.940;2023-05-10T00:27:43;5.32;;;4.40;;
76582;SDS011;65462;52.148;7.940;2023-05-10T00:30:08;5.75;;;4.78;;
76582;SDS011;65462;52.148;7.940;2023-05-10T00:32:34;6.03;;;4.90;;
76582;SDS011;65462;52.148;7.940;2023-05-10T00:34:59;5.68;;;5.07;;
76582;SDS011;65462;52.148;7.940;2023-05-10T00:37:24;6.82;;;5.30;;
76582;SDS011;65462;52.148;7.940;2023-05-10T00:39:50;7.97;;;5.03;;
76582;SDS011;65462;52.148;7.940;2023-05-10T00:42:15;5.82;;;5.20;;
76582;SDS011;65462;52.148;7.940;2023-05-10T00:44:40;5.95;;;4.78;;
76582;SDS011;65462;52.148;7.940;2023-05-10T00:47:06;6.03;;;4.97;;
76582;SDS011;65462;52.148;7.940;2023-05-10T00:49:31;5.93;;;5.03;;
76582;SDS011;65462;52.148;7.940;2023-05-10T00:51:57;6.32;;;5.00;;
76582;SDS011;65462;52.148;7.940;2023-05-10T00:54:23;6.82;;;5.85;;
76582;SDS011;65462;52.148;7.940;2023-05-10T00:56:48;6.38;;;4.97;;
76582;SDS011;65462;52.148;7.940;2023-05-10T00:59:14;7.03;;;5.75;;
76582;SDS011;65462;52.148;7.940;2023-05-10T01:01:42;7.13;;;5.88;;
76582;SDS011;65462;52.148;7.940;2023-05-10T01:04:08;6.80;;;5.55;;
76582;SDS011;65462;52.148;7.940;2023-05-10T01:06:34;6.75;;;5.70;;
76582;SDS011;65462;52.148;7.940;2023-05-10T01:09:00;8.07;;;5.68;;
76582;SDS011;65462;52.148;7.940;2023-05-10T01:11:25;6.88;;;5.38;;
76582;SDS011;65462;52.148;7.940;2023-05-10T01:13:52;6.53;;;5.28;;
76582;SDS011;65462;52.148;7.940;2023-05-10T01:16:21;7.00;;;5.53;;
76582;SDS011;65462;52.148;7.940;2023-05-10T01:18:47;6.18;;;5.13;;
76582;SDS011;65462;52.148;7.940;2023-05-10T01:37:42;5.10;;;4.10;;
76582;SDS011;65462;52.148;7.940;2023-05-10T01:42:51;6.03;;;4.00;;
76582;SDS011;65462;52.148;7.940;2023-05-10T01:45:41;5.50;;;3.30;;
76582;SDS011;65462;52.148;7.940;2023-05-10T01:48:14;3.78;;;3.00;;
76582;SDS011;65462;52.148;7.940;2023-05-10T01:50:41;4.65;;;3.13;;
76582;SDS011;65462;52.148;7.940;2023-05-10T01:53:09;4.65;;;3.47;;
76582;SDS011;65462;52.148;7.940;2023-05-10T01:55:39;4.68;;;3.45;;
76582;SDS011;65462;52.148;7.940;2023-05-10T01:58:09;4.30;;;3.22;;
76582;SDS011;65462;52.148;7.940;2023-05-10T02:00:36;4.32;;;3.28;;
76582;SDS011;65462;52.148;7.940;2023-05-10T02:03:07;3.83;;;3.10;;
76582;SDS011;65462;52.148;7.940;2023-05-10T02:05:34;4.60;;;3.33;;
76582;SDS011;65462;52.148;7.940;2023-05-10T02:08:01;3.60;;;3.20;;
76582;SDS011;65462;52.148;7.940;2023-05-10T02:10:30;3.97;;;3.00;;
76582;SDS011;65462;52.148;7.940;2023-05-10T02:13:00;4.38;;;3.30;;
76582;SDS011;65462;52.148;7.940;2023-05-10T02:15:27;4.40;;;3.20;;
76582;SDS011;65462;52.148;7.940;2023-05-10T02:17:55;5.18;;;3.58;;
76582;SDS011;65462;52.148;7.940;2023-05-10T02:20:22;3.67;;;3.00;;
76582;SDS011;65462;52.148;7.940;2023-05-10T02:22:49;5.70;;;3.30;;
76582;SDS011;65462;52.148;7.940;2023-05-10T02:25:18;4.18;;;3.10;;
76582;SDS011;65462;52.148;7.940;2023-05-10T02:27:45;4.50;;;3.63;;
76582;SDS011;65462;52.148;7.940;2023-05-10T02:30:12;4.45;;;3.38;;
76582;SDS011;65462;52.148;7.940;2023-05-10T02:32:38;3.60;;;3.03;;
76582;SDS011;65462;52.148;7.940;2023-05-10T02:35:04;3.60;;;2.88;;
76582;SDS011;65462;52.148;7.940;2023-05-10T02:37:31;2.58;;;2.03;;
76582;SDS011;65462;52.148;7.940;2023-05-10T02:39:57;2.28;;;1.67;;
76582;SDS011;65462;52.148;7.940;2023-05-10T02:42:24;2.30;;;1.40;;
76582;SDS011;65462;52.148;7.940;2023-05-10T02:44:54;2.00;;;1.00;;
76582;SDS011;65462;52.148;7.940;2023-05-10T02:47:25;1.60;;;0.70;;
76582;SDS011;65462;52.148;7.940;2023-05-10T02:49:52;1.25;;;0.73;;
76582;SDS011;65462;52.148;7.940;2023-05-10T02:52:19;0.75;;;0.65;;
76582;SDS011;65462;52.148;7.940;2023-05-10T02:54:48;1.15;;;0.82;;
76582;SDS011;65462;52.148;7.940;2023-05-10T02:57:16;1.30;;;0.70;;
76582;SDS011;65462;52.148;7.940;2023-05-10T02:59:45;1.02;;;0.73;;
76582;SDS011;65462;52.148;7.940;2023-05-10T03:02:12;1.95;;;1.08;;
76582;SDS011;65462;52.148;7.940;2023-05-10T03:04:38;2.03;;;1.35;;
76582;SDS011;65462;52.148;7.940;2023-05-10T03:07:03;3.28;;;1.25;;
76582;SDS011;65462;52.148;7.940;2023-05-10T03:09:28;1.60;;;1.25;;
76582;SDS011;65462;52.148;7.940;2023-05-10T03:17:39;6.85;;;1.90;;
76582;SDS011;65462;52.148;7.940;2023-05-10T03:20:11;2.65;;;2.00;;
76582;SDS011;65462;52.148;7.940;2023-05-10T03:22:42;2.72;;;2.10;;
76582;SDS011;65462;52.148;7.940;2023-05-10T03:25:11;3.58;;;2.10;;
76582;SDS011;65462;52.148;7.940;2023-05-10T03:27:40;2.80;;;2.08;;
76582;SDS011;65462;52.148;7.940;2023-05-10T03:30:07;3.00;;;2.53;;
76582;SDS011;65462;52.148;7.940;2023-05-10T03:32:35;3.28;;;2.97;;
76582;SDS011;65462;52.148;7.940;2023-05-10T03:35:01;3.65;;;2.65;;
76582;SDS011;65462;52.148;7.940;2023-05-10T03:37:31;4.53;;;2.92;;
76582;SDS011;65462;52.148;7.940;2023-05-10T03:39:56;6.00;;;3.30;;
76582;SDS011;65462;52.148;7.940;2023-05-10T03:42:21;3.45;;;2.97;;
76582;SDS011;65462;52.148;7.940;2023-05-10T03:44:46;4.07;;;3.30;;
76582;SDS011;65462;52.148;7.940;2023-05-10T03:47:14;4.03;;;3.30;;
76582;SDS011;65462;52.148;7.940;2023-05-10T03:49:39;3.83;;;3.05;;
76582;SDS011;65462;52.148;7.940;2023-05-10T03:52:04;4.47;;;3.10;;
76582;SDS011;65462;52.148;7.940;2023-05-10T03:54:30;3.75;;;3.33;;
76582;SDS011;65462;52.148;7.940;2023-05-10T03:56:55;4.57;;;3.53;;
76582;SDS011;65462;52.148;7.940;2023-05-10T03:59:20;3.40;;;2.90;;
76582;SDS011;65462;52.148;7.940;2023-05-10T04:01:46;4.40;;;3.20;;
76582;SDS011;65462;52.148;7.940;2023-05-10T04:04:11;5.32;;;3.22;;
76582;SDS011;65462;52.148;7.940;2023-05-10T04:06:37;4.05;;;3.45;;
76582;SDS011;65462;52.148;7.940;2023-05-10T04:09:03;5.13;;;3.10;;
76582;SDS011;65462;52.148;7.940;2023-05-10T04:11:29;5.60;;;2.92;;
76582;SDS011;65462;52.148;7.940;2023-05-10T04:13:55;4.82;;;3.58;;
76582;SDS011;65462;52.148;7.940;2023-05-10T04:16:20;4.53;;;3.40;;
76582;SDS011;65462;52.148;7.940;2023-05-10T04:18:45;3.90;;;3.22;;
76582;SDS011;65462;52.148;7.940;2023-05-10T04:21:13;4.70;;;3.70;;
76582;SDS011;65462;52.148;7.940;2023-05-10T04:23:39;3.67;;;2.97;;
76582;SDS011;65462;52.148;7.940;2023-05-10T04:26:05;4.65;;;3.33;;
76582;SDS011;65462;52.148;7.940;2023-05-10T04:28:30;4.82;;;3.78;;
76582;SDS011;65462;52.148;7.940;2023-05-10T04:31:02;3.90;;;3.20;;
76582;SDS011;65462;52.148;7.940;2023-05-10T04:33:28;5.53;;;3.50;;
76582;SDS011;65462;52.148;7.940;2023-05-10T04:35:53;4.95;;;3.53;;
76582;SDS011;65462;52.148;7.940;2023-05-10T04:38:18;4.90;;;3.70;;
76582;SDS011;65462;52.148;7.940;2023-05-10T04:40:44;4.10;;;3.22;;
76582;SDS011;65462;52.148;7.940;2023-05-10T04:43:09;4.20;;;3.47;;
76582;SDS011;65462;52.148;7.940;2023-05-10T04:45:34;3.80;;;3.15;;
76582;SDS011;65462;52.148;7.940;2023-05-10T04:48:00;4.85;;;3.22;;
76582;SDS011;65462;52.148;7.940;2023-05-10T04:50:25;4.78;;;3.50;;
76582;SDS011;65462;52.148;7.940;2023-05-10T04:52:50;4.85;;;3.47;;
76582;SDS011;65462;52.148;7.940;2023-05-10T04:55:16;6.28;;;3.83;;
76582;SDS011;65462;52.148;7.940;2023-05-10T04:57:41;8.05;;;3.30;;
76582;SDS011;65462;52.148;7.940;2023-05-10T05:00:06;4.65;;;3.35;;
76582;SDS011;65462;52.148;7.940;2023-05-10T05:02:32;4.35;;;3.30;;
76582;SDS011;65462;52.148;7.940;2023-05-10T05:04:57;4.75;;;3.33;;
76582;SDS011;65462;52.148;7.940;2023-05-10T05:07:23;4.20;;;3.30;;
76582;SDS011;65462;52.148;7.940;2023-05-10T05:09:48;4.30;;;3.63;;
76582;SDS011;65462;52.148;7.940;2023-05-10T05:12:13;4.50;;;3.05;;
76582;SDS011;65462;52.148;7.940;2023-05-10T05:14:39;4.25;;;3.17;;
76582;SDS011;65462;52.148;7.940;2023-05-10T05:17:06;4.55;;;3.25;;
76582;SDS011;65462;52.148;7.940;2023-05-10T05:19:31;3.80;;;3.05;;
76582;SDS011;65462;52.148;7.940;2023-05-10T05:21:56;4.30;;;3.30;;
76582;SDS011;65462;52.148;7.940;2023-05-10T05:24:22;4.43;;;3.08;;
76582;SDS011;65462;52.148;7.940;2023-05-10T05:26:47;3.92;;;2.75;;
76582;SDS011;65462;52.148;7.940;2023-05-10T05:29:12;4.18;;;3.22;;
76582;SDS011;65462;52.148;7.940;2023-05-10T05:31:37;3.90;;;3.03;;
76582;SDS011;65462;52.148;7.940;2023-05-10T05:34:03;4.15;;;3.10;;
76582;SDS011;65462;52.148;7.940;2023-05-10T05:36:28;6.28;;;3.33;;
76582;SDS011;65462;52.148;7.940;2023-05-10T05:38:53;5.45;;;3.13;;
76582;SDS011;65462;52.148;7.940;2023-05-10T05:41:18;5.35;;;3.33;;
76582;SDS011;65462;52.148;7.940;2023-05-10T05:43:44;5.05;;;3.20;;
76582;SDS011;65462;52.148;7.940;2023-05-10T05:46:10;5.97;;;3.45;;
76582;SDS011;65462;52.148;7.940;2023-05-10T05:48:35;5.57;;;3.58;;
76582;SDS011;65462;52.148;7.940;2023-05-10T05:51:00;5.32;;;3.95;;
76582;SDS011;65462;52.148;7.940;2023-05-10T05:53:26;7.00;;;4.22;;
76582;SDS011;65462;52.148;7.940;2023-05-10T05:55:55;6.10;;;4.15;;
76582;SDS011;65462;52.148;7.940;2023-05-10T05:58:22;5.80;;;3.92;;
76582;SDS011;65462;52.148;7.940;2023-05-10T06:00:48;5.20;;;3.58;;
76582;SDS011;65462;52.148;7.940;2023-05-10T06:03:14;5.95;;;4.43;;
76582;SDS011;65462;52.148;7.940;2023-05-10T06:05:39;5.88;;;4.45;;
76582;SDS011;65462;52.148;7.940;2023-05-10T06:08:05;6.85;;;4.40;;
76582;SDS011;65462;52.148;7.940;2023-05-10T06:10:30;8.60;;;4.45;;
76582;SDS011;65462;52.148;7.940;2023-05-10T06:12:55;7.70;;;4.43;;
76582;SDS011;65462;52.148;7.940;2023-05-10T06:15:21;7.70;;;4.38;;
76582;SDS011;65462;52.148;7.940;2023-05-10T06:17:46;6.53;;;4.63;;
76582;SDS011;65462;52.148;7.940;2023-05-10T06:20:14;6.05;;;4.07;;
76582;SDS011;65462;52.148;7.940;2023-05-10T06:22:40;6.30;;;4.45;;
76582;SDS011;65462;52.148;7.940;2023-05-10T06:25:05;6.22;;;4.68;;
76582;SDS011;65462;52.148;7.940;2023-05-10T06:27:31;6.32;;;4.70;;
76582;SDS011;65462;52.148;7.940;2023-05-10T06:29:56;5.82;;;4.43;;
76582;SDS011;65462;52.148;7.940;2023-05-10T06:32:21;7.40;;;4.35;;
76582;SDS011;65462;52.148;7.940;2023-05-10T06:34:47;7.80;;;5.20;;
76582;SDS011;65462;52.148;7.940;2023-05-10T06:37:12;6.95;;;4.70;;
76582;SDS011;65462;52.148;7.940;2023-05-10T06:39:37;6.82;;;4.63;;
76582;SDS011;65462;52.148;7.940;2023-05-10T06:42:03;7.03;;;4.93;;
76582;SDS011;65462;52.148;7.940;2023-05-10T06:44:29;7.20;;;5.03;;
76582;SDS011;65462;52.148;7.940;2023-05-10T06:46:54;8.20;;;5.38;;
76582;SDS011;65462;52.148;7.940;2023-05-10T06:49:20;10.52;;;5.93;;
76582;SDS011;65462;52.148;7.940;2023-05-10T06:51:46;9.18;;;5.88;;
76582;SDS011;65462;52.148;7.940;2023-05-10T06:54:11;9.48;;;6.00;;
76582;SDS011;65462;52.148;7.940;2023-05-10T06:56:36;9.40;;;6.53;;
76582;SDS011;65462;52.148;7.940;2023-05-10T06:59:01;9.75;;;6.45;;
76582;SDS011;65462;52.148;7.940;2023-05-10T07:01:27;10.82;;;6.18;;
76582;SDS011;65462;52.148;7.940;2023-05-10T07:03:53;8.98;;;6.57;;
76582;SDS011;65462;52.148;7.940;2023-05-10T07:06:18;10.68;;;7.13;;
76582;SDS011;65462;52.148;7.940;2023-05-10T07:08:43;12.75;;;7.40;;
76582;SDS011;65462;52.148;7.940;2023-05-10T07:11:08;11.32;;;7.35;;
76582;SDS011;65462;52.148;7.940;2023-05-10T07:13:35;12.73;;;7.65;;
76582;SDS011;65462;52.148;7.940;2023-05-10T07:16:01;15.10;;;7.68;;
76582;SDS011;65462;52.148;7.940;2023-05-10T07:18:27;12.38;;;7.78;;
76582;SDS011;65462;52.148;7.940;2023-05-10T07:20:52;14.27;;;8.27;;
76582;SDS011;65462;52.148;7.940;2023-05-10T07:23:18;12.93;;;7.80;;
76582;SDS011;65462;52.148;7.940;2023-05-10T07:25:47;12.38;;;7.68;;
76582;SDS011;65462;52.148;7.940;2023-05-10T07:28:13;14.32;;;8.20;;
76582;SDS011;65462;52.148;7.940;2023-05-10T07:30:39;14.15;;;8.90;;
76582;SDS011;65462;52.148;7.940;2023-05-10T07:33:05;14.05;;;8.57;;
76582;SDS011;65462;52.148;7.940;2023-05-10T07:35:30;15.77;;;8.52;;
76582;SDS011;65462;52.148;7.940;2023-05-10T07:37:55;18.63;;;10.20;;
76582;SDS011;65462;52.148;7.940;2023-05-10T07:40:21;16.60;;;8.95;;
76582;SDS011;65462;52.148;7.940;2023-05-10T07:42:46;16.05;;;9.32;;
76582;SDS011;65462;52.148;7.940;2023-05-10T07:45:11;17.23;;;9.40;;
76582;SDS011;65462;52.148;7.940;2023-05-10T07:47:37;16.77;;;9.45;;
76582;SDS011;65462;52.148;7.940;2023-05-10T07:50:02;17.58;;;10.00;;
76582;SDS011;65462;52.148;7.940;2023-05-10T07:52:27;17.10;;;9.18;;
76582;SDS011;65462;52.148;7.940;2023-05-10T07:54:52;19.48;;;9.85;;
76582;SDS011;65462;52.148;7.940;2023-05-10T07:57:18;16.45;;;9.68;;
76582;SDS011;65462;52.148;7.940;2023-05-10T07:59:43;16.40;;;9.23;;
76582;SDS011;65462;52.148;7.940;2023-05-10T08:02:10;17.98;;;9.98;;
76582;SDS011;65462;52.148;7.940;2023-05-10T08:04:35;18.58;;;10.43;;
76582;SDS011;65462;52.148;7.940;2023-05-10T08:07:00;17.63;;;10.20;;
76582;SDS011;65462;52.148;7.940;2023-05-10T08:09:25;19.35;;;11.50;;
76582;SDS011;65462;52.148;7.940;2023-05-10T08:11:51;18.67;;;11.15;;
76582;SDS011;65462;52.148;7.940;2023-05-10T08:14:16;24.35;;;12.88;;
76582;SDS011;65462;52.148;7.940;2023-05-10T08:16:42;21.35;;;11.48;;
76582;SDS011;65462;52.148;7.940;2023-05-10T08:19:07;22.98;;;12.00;;
76582;SDS011;65462;52.148;7.940;2023-05-10T08:21:32;24.83;;;12.35;;
76582;SDS011;65462;52.148;7.940;2023-05-10T08:23:57;22.88;;;12.50;;
76582;SDS011;65462;52.148;7.940;2023-05-10T08:26:23;24.83;;;12.80;;
76582;SDS011;65462;52.148;7.940;2023-05-10T08:28:48;25.10;;;12.63;;
76582;SDS011;65462;52.148;7.940;2023-05-10T08:31:15;25.27;;;13.05;;
76582;SDS011;65462;52.148;7.940;2023-05-10T08:33:40;25.27;;;13.80;;
76582;SDS011;65462;52.148;7.940;2023-05-10T08:36:06;22.70;;;13.52;;
76582;SDS011;65462;52.148;7.940;2023-05-10T08:38:31;24.42;;;13.25;;
76582;SDS011;65462;52.148;7.940;2023-05-10T08:40:56;25.08;;;14.45;;
76582;SDS011;65462;52.148;7.940;2023-05-10T08:43:23;25.77;;;13.88;;
76582;SDS011;65462;52.148;7.940;2023-05-10T08:45:54;27.70;;;13.88;;
76582;SDS011;65462;52.148;7.940;2023-05-10T08:48:23;25.48;;;13.18;;
76582;SDS011;65462;52.148;7.940;2023-05-10T08:50:50;26.50;;;13.43;;
76582;SDS011;65462;52.148;7.940;2023-05-10T08:53:17;23.58;;;13.25;;
76582;SDS011;65462;52.148;7.940;2023-05-10T08:55:44;26.63;;;14.43;;
76582;SDS011;65462;52.148;7.940;2023-05-10T08:58:10;28.35;;;14.43;;
76582;SDS011;65462;52.148;7.940;2023-05-10T09:00:36;26.00;;;13.35;;
76582;SDS011;65462;52.148;7.940;2023-05-10T09:03:04;27.48;;;13.88;;
76582;SDS011;65462;52.148;7.940;2023-05-10T09:05:30;27.30;;;13.95;;
76582;SDS011;65462;52.148;7.940;2023-05-10T09:07:55;27.88;;;15.18;;
76582;SDS011;65462;52.148;7.940;2023-05-10T09:10:21;28.52;;;14.93;;
76582;SDS011;65462;52.148;7.940;2023-05-10T09:12:47;24.85;;;14.68;;
76582;SDS011;65462;52.148;7.940;2023-05-10T09:15:16;28.20;;;14.45;;
76582;SDS011;65462;52.148;7.940;2023-05-10T09:17:44;26.95;;;13.50;;
76582;SDS011;65462;52.148;7.940;2023-05-10T09:20:09;26.25;;;14.10;;
76582;SDS011;65462;52.148;7.940;2023-05-10T09:22:35;26.13;;;13.75;;
76582;SDS011;65462;52.148;7.940;2023-05-10T09:25:08;23.30;;;12.98;;
76582;SDS011;65462;52.148;7.940;2023-05-10T09:27:35;24.52;;;13.65;;
76582;SDS011;65462;52.148;7.940;2023-05-10T09:30:02;25.83;;;14.05;;
76582;SDS011;65462;52.148;7.940;2023-05-10T09:35:10;24.65;;;12.85;;
76582;SDS011;65462;52.148;7.940;2023-05-10T09:37:39;21.90;;;13.27;;
76582;SDS011;65462;52.148;7.940;2023-05-10T09:40:12;22.98;;;13.63;;
76582;SDS011;65462;52.148;7.940;2023-05-10T09:42:40;21.40;;;13.23;;
76582;SDS011;65462;52.148;7.940;2023-05-10T09:45:16;22.35;;;13.95;;
76582;SDS011;65462;52.148;7.940;2023-05-10T09:47:41;23.25;;;12.45;;
76582;SDS011;65462;52.148;7.940;2023-05-10T09:50:06;23.80;;;12.80;;
76582;SDS011;65462;52.148;7.940;2023-05-10T09:52:45;20.27;;;12.80;;
76582;SDS011;65462;52.148;7.940;2023-05-10T09:55:12;21.65;;;12.27;;
76582;SDS011;65462;52.148;7.940;2023-05-10T09:57:37;22.20;;;14.07;;
76582;SDS011;65462;52.148;7.940;2023-05-10T10:00:04;24.05;;;13.27;;
76582;SDS011;65462;52.148;7.940;2023-05-10T10:02:30;24.20;;;13.85;;
76582;SDS011;65462;52.148;7.940;2023-05-10T10:04:56;22.88;;;12.32;;
76582;SDS011;65462;52.148;7.940;2023-05-10T10:07:22;23.90;;;13.43;;
76582;SDS011;65462;52.148;7.940;2023-05-10T10:09:49;22.83;;;12.32;;
76582;SDS011;65462;52.148;7.940;2023-05-10T10:12:14;24.77;;;13.02;;
76582;SDS011;65462;52.148;7.940;2023-05-10T10:14:39;20.73;;;12.77;;
76582;SDS011;65462;52.148;7.940;2023-05-10T10:17:05;21.83;;;12.55;;
76582;SDS011;65462;52.148;7.940;2023-05-10T10:19:32;23.40;;;13.35;;
76582;SDS011;65462;52.148;7.940;2023-05-10T10:21:59;20.48;;;11.68;;
76582;SDS011;65462;52.148;7.940;2023-05-10T10:24:25;22.05;;;12.00;;
76582;SDS011;65462;52.148;7.940;2023-05-10T10:26:51;19.77;;;10.77;;
76582;SDS011;65462;52.148;7.940;2023-05-10T10:29:21;22.08;;;10.98;;
76582;SDS011;65462;52.148;7.940;2023-05-10T10:32:11;18.10;;;10.55;;
76582;SDS011;65462;52.148;7.940;2023-05-10T10:34:46;20.17;;;10.82;;
76582;SDS011;65462;52.148;7.940;2023-05-10T10:37:12;18.65;;;10.68;;
76582;SDS011;65462;52.148;7.940;2023-05-10T10:39:38;18.90;;;11.18;;
76582;SDS011;65462;52.148;7.940;2023-05-10T10:42:03;17.58;;;10.85;;
76582;SDS011;65462;52.148;7.940;2023-05-10T10:52:32;18.65;;;10.07;;
76582;SDS011;65462;52.148;7.940;2023-05-10T10:55:06;15.75;;;9.93;;
76582;SDS011;65462;52.148;7.940;2023-05-10T10:57:51;17.73;;;10.38;;
76582;SDS011;65462;52.148;7.940;2023-05-10T11:02:59;15.38;;;9.18;;
76582;SDS011;65462;52.148;7.940;2023-05-10T11:08:21;16.40;;;9.95;;
76582;SDS011;65462;52.148;7.940;2023-05-10T11:11:14;17.75;;;9.63;;
76582;SDS011;65462;52.148;7.940;2023-05-10T11:13:43;16.42;;;9.25;;
76582;SDS011;65462;52.148;7.940;2023-05-10T11:19:10;14.30;;;8.25;;
76582;SDS011;65462;52.148;7.940;2023-05-10T11:21:46;15.50;;;9.20;;
76582;SDS011;65462;52.148;7.940;2023-05-10T11:24:22;14.93;;;8.75;;
76582;SDS011;65462;52.148;7.940;2023-05-10T11:26:52;16.63;;;9.30;;
76582;SDS011;65462;52.148;7.940;2023-05-10T11:29:18;15.50;;;9.18;;
76582;SDS011;65462;52.148;7.940;2023-05-10T11:31:44;14.95;;;8.80;;
76582;SDS011;65462;52.148;7.940;2023-05-10T11:34:10;14.20;;;7.45;;
76582;SDS011;65462;52.148;7.940;2023-05-10T11:36:36;18.23;;;8.10;;
76582;SDS011;65462;52.148;7.940;2023-05-10T11:39:02;13.07;;;7.80;;
76582;SDS011;65462;52.148;7.940;2023-05-10T11:41:28;14.10;;;8.40;;
76582;SDS011;65462;52.148;7.940;2023-05-10T11:43:55;12.63;;;7.85;;
76582;SDS011;65462;52.148;7.940;2023-05-10T11:46:25;11.48;;;7.18;;
76582;SDS011;65462;52.148;7.940;2023-05-10T11:48:57;11.20;;;6.95;;
76582;SDS011;65462;52.148;7.940;2023-05-10T11:51:25;12.40;;;6.95;;
76582;SDS011;65462;52.148;7.940;2023-05-10T11:53:53;11.93;;;6.93;;
76582;SDS011;65462;52.148;7.940;2023-05-10T11:56:19;10.50;;;6.55;;
76582;SDS011;65462;52.148;7.940;2023-05-10T11:58:45;9.93;;;6.90;;
76582;SDS011;65462;52.148;7.940;2023-05-10T12:01:16;12.02;;;6.35;;
76582;SDS011;65462;52.148;7.940;2023-05-10T12:03:41;11.45;;;7.00;;
76582;SDS011;65462;52.148;7.940;2023-05-10T12:06:07;8.02;;;5.13;;
76582;SDS011;65462;52.148;7.940;2023-05-10T12:08:32;9.60;;;5.60;;
76582;SDS011;65462;52.148;7.940;2023-05-10T12:11:05;9.57;;;6.47;;
76582;SDS011;65462;52.148;7.940;2023-05-10T12:15:57;8.63;;;5.38;;
76582;SDS011;65462;52.148;7.940;2023-05-10T12:18:23;8.38;;;5.75;;
76582;SDS011;65462;52.148;7.940;2023-05-10T12:20:51;10.43;;;6.75;;
76582;SDS011;65462;52.148;7.940;2023-05-10T12:23:18;10.93;;;6.55;;
76582;SDS011;65462;52.148;7.940;2023-05-10T12:25:45;12.43;;;6.97;;
76582;SDS011;65462;52.148;7.940;2023-05-10T12:28:10;13.23;;;8.00;;
76582;SDS011;65462;52.148;7.940;2023-05-10T12:30:36;11.93;;;7.65;;
76582;SDS011;65462;52.148;7.940;2023-05-10T12:33:02;12.60;;;8.57;;
76582;SDS011;65462;52.148;7.940;2023-05-10T12:35:42;10.85;;;7.35;;
76582;SDS011;65462;52.148;7.940;2023-05-10T12:38:45;13.13;;;7.80;;
76582;SDS011;65462;52.148;7.940;2023-05-10T12:41:09;14.80;;;8.63;;
76582;SDS011;65462;52.148;7.940;2023-05-10T12:43:35;15.18;;;8.85;;
76582;SDS011;65462;52.148;7.940;2023-05-10T12:46:05;16.23;;;8.35;;
76582;SDS011;65462;52.148;7.940;2023-05-10T12:48:30;13.55;;;8.98;;
76582;SDS011;65462;52.148;7.940;2023-05-10T12:50:56;16.48;;;9.70;;
76582;SDS011;65462;52.148;7.940;2023-05-10T12:53:21;16.08;;;9.65;;
76582;SDS011;65462;52.148;7.940;2023-05-10T12:55:47;12.55;;;8.55;;
76582;SDS011;65462;52.148;7.940;2023-05-10T12:58:12;14.70;;;8.80;;
76582;SDS011;65462;52.148;7.940;2023-05-10T13:00:37;12.38;;;8.52;;
76582;SDS011;65462;52.148;7.940;2023-05-10T13:03:03;14.10;;;8.90;;
76582;SDS011;65462;52.148;7.940;2023-05-10T13:05:32;13.95;;;8.65;;
76582;SDS011;65462;52.148;7.940;2023-05-10T13:07:57;14.35;;;9.70;;
76582;SDS011;65462;52.148;7.940;2023-05-10T13:10:23;16.10;;;9.60;;
76582;SDS011;65462;52.148;7.940;2023-05-10T13:12:48;16.00;;;9.25;;
76582;SDS011;65462;52.148;7.940;2023-05-10T13:15:14;15.50;;;9.07;;
76582;SDS011;65462;52.148;7.940;2023-05-10T13:17:39;17.90;;;9.27;;
76582;SDS011;65462;52.148;7.940;2023-05-10T13:20:05;17.83;;;9.75;;
76582;SDS011;65462;52.148;7.940;2023-05-10T13:22:31;16.48;;;8.77;;
76582;SDS011;65462;52.148;7.940;2023-05-10T13:24:56;14.75;;;9.63;;
76582;SDS011;65462;52.148;7.940;2023-05-10T13:27:21;19.42;;;10.43;;
76582;SDS011;65462;52.148;7.940;2023-05-10T13:29:47;16.98;;;10.38;;
76582;SDS011;65462;52.148;7.940;2023-05-10T13:32:12;16.70;;;9.57;;
76582;SDS011;65462;52.148;7.940;2023-05-10T13:34:37;17.52;;;9.82;;
76582;SDS011;65462;52.148;7.940;2023-05-10T13:37:02;16.48;;;9.60;;
76582;SDS011;65462;52.148;7.940;2023-05-10T13:39:28;15.85;;;9.98;;
76582;SDS011;65462;52.148;7.940;2023-05-10T13:41:58;17.05;;;9.68;;
76582;SDS011;65462;52.148;7.940;2023-05-10T13:44:23;16.80;;;10.23;;
76582;SDS011;65462;52.148;7.940;2023-05-10T13:46:48;16.80;;;9.45;;
76582;SDS011;65462;52.148;7.940;2023-05-10T13:49:13;14.15;;;9.15;;
76582;SDS011;65462;52.148;7.940;2023-05-10T13:51:39;15.88;;;9.00;;
76582;SDS011;65462;52.148;7.940;2023-05-10T13:54:04;18.45;;;9.00;;
76582;SDS011;65462;52.148;7.940;2023-05-10T13:56:30;18.38;;;9.60;;
76582;SDS011;65462;52.148;7.940;2023-05-10T13:58:56;15.90;;;9.23;;
76582;SDS011;65462;52.148;7.940;2023-05-10T14:01:23;15.05;;;8.85;;
76582;SDS011;65462;52.148;7.940;2023-05-10T14:03:48;15.88;;;9.32;;
76582;SDS011;65462;52.148;7.940;2023-05-10T14:06:13;17.10;;;10.27;;
76582;SDS011;65462;52.148;7.940;2023-05-10T14:08:39;15.63;;;9.25;;
76582;SDS011;65462;52.148;7.940;2023-05-10T14:11:05;15.00;;;8.73;;
76582;SDS011;65462;52.148;7.940;2023-05-10T14:13:30;12.48;;;7.57;;
76582;SDS011;65462;52.148;7.940;2023-05-10T14:15:55;17.45;;;9.40;;
76582;SDS011;65462;52.148;7.940;2023-05-10T14:18:21;16.55;;;9.05;;
76582;SDS011;65462;52.148;7.940;2023-05-10T14:20:46;16.60;;;9.77;;
76582;SDS011;65462;52.148;7.940;2023-05-10T14:23:11;17.38;;;9.50;;
76582;SDS011;65462;52.148;7.940;2023-05-10T14:25:37;16.08;;;9.40;;
76582;SDS011;65462;52.148;7.940;2023-05-10T14:28:04;16.20;;;9.38;;
76582;SDS011;65462;52.148;7.940;2023-05-10T14:30:30;18.88;;;10.13;;
76582;SDS011;65462;52.148;7.940;2023-05-10T14:32:56;18.92;;;9.90;;
76582;SDS011;65462;52.148;7.940;2023-05-10T14:35:23;18.08;;;8.98;;
76582;SDS011;65462;52.148;7.940;2023-05-10T14:37:48;15.80;;;8.95;;
76582;SDS011;65462;52.148;7.940;2023-05-10T14:40:14;14.30;;;8.18;;
76582;SDS011;65462;52.148;7.940;2023-05-10T14:42:40;15.15;;;8.82;;
76582;SDS011;65462;52.148;7.940;2023-05-10T14:45:05;17.55;;;8.88;;
76582;SDS011;65462;52.148;7.940;2023-05-10T14:47:31;15.80;;;9.25;;
76582;SDS011;65462;52.148;7.940;2023-05-10T14:49:56;17.23;;;9.00;;
76582;SDS011;65462;52.148;7.940;2023-05-10T14:52:21;16.88;;;8.98;;
76582;SDS011;65462;52.148;7.940;2023-05-10T14:54:46;14.68;;;8.35;;
76582;SDS011;65462;52.148;7.940;2023-05-10T14:57:12;15.02;;;8.45;;
76582;SDS011;65462;52.148;7.940;2023-05-10T14:59:37;13.75;;;8.10;;
76582;SDS011;65462;52.148;7.940;2023-05-10T15:02:03;16.95;;;8.43;;
76582;SDS011;65462;52.148;7.940;2023-05-10T15:04:29;15.38;;;8.32;;
76582;SDS011;65462;52.148;7.940;2023-05-10T15:06:54;15.18;;;9.25;;
76582;SDS011;65462;52.148;7.940;2023-05-10T15:09:24;14.40;;;7.70;;
76582;SDS011;65462;52.148;7.940;2023-05-10T15:11:49;16.40;;;8.68;;
76582;SDS011;65462;52.148;7.940;2023-05-10T15:14:14;13.45;;;8.15;;
76582;SDS011;65462;52.148;7.940;2023-05-10T15:16:40;13.18;;;7.45;;
76582;SDS011;65462;52.148;7.940;2023-05-10T15:19:05;15.13;;;8.48;;
76582;SDS011;65462;52.148;7.940;2023-05-10T15:21:30;14.88;;;8.20;;